Vitsentzos Kornaros — SXNX — position and weather

sailwx.info

Track history (hours):
 
Tides and Currents Weather Stations Pressure Air Temp Water Temp Dewpoint Dewpoint Depression Visibility Wind Speed Wind Dir Waves Ship Positions

Vitsentzos Kornaros

Last reported at 2014-Jul-23 21:11 UTC. Time now 2014-Jul-24 19:19 UTC.
Position N 35°32' E 023°39'.

Length 128 m; draft 4.5 m.

Type: Passenger vessel. MMSI: 239311000.

Date/timePositionNaut miles runAvg speedWind from/ knotsBaromVisibWave heightAir tempDewpointWater temp
2014-Jul-23 21:11N 35°32' E 023°39'1 0.0
2014-Jul-22 15:32N 35°31' E 023°38'15 1.1
2014-Jul-22 01:10N 35°45' E 023°33'3814.4
2014-Jul-21 22:32N 36°17' E 023°06'4 3.8
2014-Jul-21 21:32N 36°20' E 023°07'1414.4
2014-Jul-21 20:32N 36°32' E 023°17'4514.0
2014-Jul-21 17:19N 37°15' E 023°33'1013.4
2014-Jul-21 16:33N 37°25' E 023°37'1414.2
2014-Jul-21 15:33N 37°39' E 023°41'1414.2
2014-Jul-21 14:33N 37°53' E 023°37'4 4.5
2014-Jul-21 13:33N 37°57' E 023°38'0 0.0
2014-Jul-21 12:33N 37°57' E 023°38'0 0.0
2014-Jul-21 11:33N 37°57' E 023°38'0 0.0
2014-Jul-21 10:33N 37°57' E 023°38'0 0.0
2014-Jul-21 09:32N 37°57' E 023°38'0 0.0
2014-Jul-21 08:32N 37°57' E 023°38'0 0.0
2014-Jul-21 07:33N 37°57' E 023°38'0 0.0
2014-Jul-21 06:33N 37°57' E 023°38'0 0.0
2014-Jul-21 05:21N 37°57' E 023°38'1 0.2
2014-Jul-21 02:27N 37°56' E 023°38'1213.6
2014-Jul-21 01:33N 37°45' E 023°43'1413.8
2014-Jul-21 00:31N 37°31' E 023°41'3115.1
2014-Jul-20 22:29N 37°02' E 023°28'1715.2
2014-Jul-20 21:22N 36°46' E 023°21'75 5.3
2014-Jul-20 07:05N 35°32' E 023°39'38 2.3
2014-Jul-19 14:24N 36°05' E 023°16'1213.9
2014-Jul-19 13:34N 35°55' E 023°24'1414.3
2014-Jul-19 12:33N 35°43' E 023°34'7 0.7
2014-Jul-19 02:32N 35°37' E 023°38'59 9.7
2014-Jul-18 20:26N 36°34' E 023°18'5614.2
2014-Jul-18 16:30N 37°27' E 023°39'1313.9
2014-Jul-18 15:33N 37°40' E 023°42'1414.2
2014-Jul-18 14:33N 37°53' E 023°37'4 3.7
2014-Jul-18 13:33N 37°57' E 023°38'0 0.0
2014-Jul-18 12:33N 37°57' E 023°38'0 0.0
2014-Jul-18 11:33N 37°57' E 023°38'0 0.0
2014-Jul-18 10:33N 37°57' E 023°38'0 0.0
2014-Jul-18 09:33N 37°57' E 023°38'0 0.0
2014-Jul-18 03:16N 37°57' E 023°38'811.6
2014-Jul-18 02:33N 37°49' E 023°41'1313.3
2014-Jul-18 01:33N 37°36' E 023°43'1614.6
2014-Jul-18 00:29N 37°21' E 023°36'1314.3
2014-Jul-17 23:33N 37°09' E 023°30'1514.5
2014-Jul-17 22:32N 36°55' E 023°25'1414.4
2014-Jul-17 21:33N 36°41' E 023°19'1414.0
2014-Jul-17 20:33N 36°28' E 023°14'1413.7
2014-Jul-17 19:32N 36°16' E 023°04'  
2014-Jul-14 17:32N 37°12' E 023°32'1413.9
2014-Jul-14 16:33N 37°25' E 023°38'1413.9
2014-Jul-14 15:33N 37°39' E 023°42'1414.2
2014-Jul-14 14:33N 37°52' E 023°37'5 4.7
2014-Jul-14 13:33N 37°57' E 023°38'0 0.0
2014-Jul-14 12:33N 37°57' E 023°38'0 0.0
2014-Jul-14 11:33N 37°57' E 023°38'0 0.0
2014-Jul-14 10:33N 37°57' E 023°38'0 0.0
2014-Jul-14 09:33N 37°57' E 023°38'0 0.0
2014-Jul-14 08:33N 37°57' E 023°38'0 0.0
2014-Jul-14 07:33N 37°57' E 023°38'0 0.0
2014-Jul-14 06:33N 37°57' E 023°38'5 1.2
2014-Jul-14 02:33N 37°52' E 023°39'1413.8
2014-Jul-14 01:33N 37°39' E 023°45'4814.8
2014-Jul-13 22:21N 36°55' E 023°25'1114.6
2014-Jul-13 21:33N 36°44' E 023°20'  
Track history (hours):
 
Tides and Currents Weather Stations Pressure Air Temp Water Temp Dewpoint Dewpoint Depression Visibility Wind Speed Wind Dir Waves Ship Positions

Vitsentzos Kornaros

Last reported at 2014-Jul-23 21:11 UTC. Time now 2014-Jul-24 19:19 UTC.
Position N 35°32' E 023°39'.

Length 128 m; draft 4.5 m.

Type: Passenger vessel. MMSI: 239311000.

Date/timePositionNaut miles runAvg speedWind from/ knotsBaromVisibWave heightAir tempDewpointWater temp
2014-Jul-23 21:11N 35°32' E 023°39'1 0.0
2014-Jul-22 15:32N 35°31' E 023°38'15 1.1
2014-Jul-22 01:10N 35°45' E 023°33'3814.4
2014-Jul-21 22:32N 36°17' E 023°06'4 3.8
2014-Jul-21 21:32N 36°20' E 023°07'1414.4
2014-Jul-21 20:32N 36°32' E 023°17'4514.0
2014-Jul-21 17:19N 37°15' E 023°33'1013.4
2014-Jul-21 16:33N 37°25' E 023°37'1414.2
2014-Jul-21 15:33N 37°39' E 023°41'1414.2
2014-Jul-21 14:33N 37°53' E 023°37'4 4.5
2014-Jul-21 13:33N 37°57' E 023°38'0 0.0
2014-Jul-21 12:33N 37°57' E 023°38'0 0.0
2014-Jul-21 11:33N 37°57' E 023°38'0 0.0
2014-Jul-21 10:33N 37°57' E 023°38'0 0.0
2014-Jul-21 09:32N 37°57' E 023°38'0 0.0
2014-Jul-21 08:32N 37°57' E 023°38'0 0.0
2014-Jul-21 07:33N 37°57' E 023°38'0 0.0
2014-Jul-21 06:33N 37°57' E 023°38'0 0.0
2014-Jul-21 05:21N 37°57' E 023°38'1 0.2
2014-Jul-21 02:27N 37°56' E 023°38'1213.6
2014-Jul-21 01:33N 37°45' E 023°43'1413.8
2014-Jul-21 00:31N 37°31' E 023°41'3115.1
2014-Jul-20 22:29N 37°02' E 023°28'1715.2
2014-Jul-20 21:22N 36°46' E 023°21'75 5.3
2014-Jul-20 07:05N 35°32' E 023°39'38 2.3
2014-Jul-19 14:24N 36°05' E 023°16'1213.9
2014-Jul-19 13:34N 35°55' E 023°24'1414.3
2014-Jul-19 12:33N 35°43' E 023°34'7 0.7
2014-Jul-19 02:32N 35°37' E 023°38'59 9.7
2014-Jul-18 20:26N 36°34' E 023°18'5614.2
2014-Jul-18 16:30N 37°27' E 023°39'1313.9
2014-Jul-18 15:33N 37°40' E 023°42'1414.2
2014-Jul-18 14:33N 37°53' E 023°37'4 3.7
2014-Jul-18 13:33N 37°57' E 023°38'0 0.0
2014-Jul-18 12:33N 37°57' E 023°38'0 0.0
2014-Jul-18 11:33N 37°57' E 023°38'0 0.0
2014-Jul-18 10:33N 37°57' E 023°38'0 0.0
2014-Jul-18 09:33N 37°57' E 023°38'0 0.0
2014-Jul-18 03:16N 37°57' E 023°38'811.6
2014-Jul-18 02:33N 37°49' E 023°41'1313.3
2014-Jul-18 01:33N 37°36' E 023°43'1614.6
2014-Jul-18 00:29N 37°21' E 023°36'1314.3
2014-Jul-17 23:33N 37°09' E 023°30'1514.5
2014-Jul-17 22:32N 36°55' E 023°25'1414.4
2014-Jul-17 21:33N 36°41' E 023°19'1414.0
2014-Jul-17 20:33N 36°28' E 023°14'1413.7
2014-Jul-17 19:32N 36°16' E 023°04'  
2014-Jul-14 17:32N 37°12' E 023°32'1413.9
2014-Jul-14 16:33N 37°25' E 023°38'1413.9
2014-Jul-14 15:33N 37°39' E 023°42'1414.2
2014-Jul-14 14:33N 37°52' E 023°37'5 4.7
2014-Jul-14 13:33N 37°57' E 023°38'0 0.0
2014-Jul-14 12:33N 37°57' E 023°38'0 0.0
2014-Jul-14 11:33N 37°57' E 023°38'0 0.0
2014-Jul-14 10:33N 37°57' E 023°38'0 0.0
2014-Jul-14 09:33N 37°57' E 023°38'0 0.0
2014-Jul-14 08:33N 37°57' E 023°38'0 0.0
2014-Jul-14 07:33N 37°57' E 023°38'0 0.0
2014-Jul-14 06:33N 37°57' E 023°38'5 1.2
2014-Jul-14 02:33N 37°52' E 023°39'1413.8
2014-Jul-14 01:33N 37°39' E 023°45'4814.8
2014-Jul-13 22:21N 36°55' E 023°25'1114.6
2014-Jul-13 21:33N 36°44' E 023°20'  

Dump ship's entire track history